Time;durP1;ratioP1;P1;durP2;ratioP2;P2;SDS_P1;SDS_P2;PMS_P1;PMS_P2;Temp;Humidity;BMP_temperature;BMP_pressure;BME280_temperature;BME280_humidity;BME280_pressure;Samples;Min_cycle;Max_cycle;Signal;HPM_P1;HPM_P2
2023/01/17 00:02:27;;;;;;;;;20.20;15.40;;;;;14.15;47.59;97309.06;5056631;28;8845;-76
2023/01/17 00:10:30;;;;;;;;;15.60;13.40;;;;;14.27;47.51;97306.75;5064483;28;8838;-76
2023/01/17 00:13:01;;;;;;;;;11.60;11.60;;;;;14.20;47.66;97314.09;5064734;28;8929;-74
2023/01/17 00:15:31;;;;;;;;;10.20;10.20;;;;;14.19;47.97;97318.47;5089445;27;8847;-74
2023/01/17 00:18:00;;;;;;;;;18.20;15.40;;;;;14.14;48.71;97317.88;5147765;27;8908;-77
2023/01/17 00:26:20;;;;;;;;;13.40;13.40;;;;;14.22;49.47;97314.84;5084621;28;8849;-76
2023/01/17 01:33:45;;;;;;;;;7.60;7.60;;;;;14.14;51.38;97298.66;5151743;27;8828;-75
2023/01/17 01:36:14;;;;;;;;;8.00;8.00;;;;;14.08;51.47;97291.94;5130557;27;8831;-75
2023/01/17 01:38:42;;;;;;;;;8.00;8.00;;;;;14.12;51.60;97290.03;5129414;27;8857;-76
2023/01/17 01:41:13;;;;;;;;;9.00;8.80;;;;;13.94;52.47;97294.44;5139077;27;8827;-78
2023/01/17 01:43:46;;;;;;;;;11.80;10.00;;;;;13.96;52.41;97292.59;5151324;27;8843;-75
2023/01/17 01:46:18;;;;;;;;;9.80;9.20;;;;;13.91;52.58;97297.22;5151378;27;8836;-75
2023/01/17 01:48:52;;;;;;;;;12.00;12.00;;;;;13.97;52.48;97281.16;5132215;27;8847;-78
2023/01/17 01:51:25;;;;;;;;;9.80;9.80;;;;;13.83;53.02;97281.88;5150616;27;10021;-75
2023/01/17 01:53:58;;;;;;;;;14.00;10.60;;;;;13.89;52.92;97273.69;5132747;27;8889;-75
2023/01/17 01:56:30;;;;;;;;;12.80;11.00;;;;;13.91;53.19;97284.09;5132299;27;8839;-74
2023/01/17 01:59:02;;;;;;;;;13.20;12.80;;;;;13.80;53.67;97295.16;5119594;27;8868;-74
2023/01/17 02:01:36;;;;;;;;;11.60;11.60;;;;;13.81;53.92;97289.81;5137410;27;8943;-74
2023/01/17 02:04:08;;;;;;;;;13.60;12.60;;;;;13.76;53.60;97289.22;5132115;27;9005;-78
2023/01/17 02:06:39;;;;;;;;;12.60;12.20;;;;;13.75;53.82;97290.13;5150636;27;9654;-74
2023/01/17 02:09:11;;;;;;;;;15.20;12.60;;;;;13.68;54.19;97287.88;5131976;27;8851;-74
2023/01/17 02:11:41;;;;;;;;;12.40;11.60;;;;;13.51;54.75;97297.41;5150510;27;8827;-74
2023/01/17 02:14:15;;;;;;;;;15.80;12.60;;;;;13.58;54.61;97298.81;5136724;27;8853;-74
2023/01/17 02:17:01;;;;;;;;;14.00;13.40;;;;;13.54;54.37;97276.31;5093704;27;8864;-75
2023/01/17 02:20:03;;;;;;;;;12.60;10.40;;;;;13.63;54.50;97298.59;5129480;27;8937;-77
2023/01/17 02:23:03;;;;;;;;;13.80;13.00;;;;;13.60;54.37;97296.97;5150789;27;8863;-76
2023/01/17 02:25:56;;;;;;;;;18.40;16.80;;;;;13.46;54.85;97302.03;5132883;27;8839;-75
2023/01/17 02:28:46;;;;;;;;;12.80;12.80;;;;;13.53;54.74;97307.81;5132499;27;8843;-75
2023/01/17 02:31:21;;;;;;;;;13.60;10.40;;;;;13.51;54.55;97307.03;5144834;27;9608;-78
2023/01/17 02:33:58;;;;;;;;;8.20;8.00;;;;;13.52;54.22;97299.13;5128953;27;8880;-76
2023/01/17 02:36:33;;;;;;;;;11.80;9.20;;;;;13.49;54.04;97288.78;5114712;27;8861;-73
2023/01/17 02:39:08;;;;;;;;;14.40;13.60;;;;;13.63;53.62;97275.03;5144414;27;8834;-76
2023/01/17 02:41:41;;;;;;;;;13.00;12.40;;;;;13.57;53.65;97267.44;5094478;27;9016;-76
2023/01/17 02:44:15;;;;;;;;;13.60;11.20;;;;;13.58;53.00;97272.63;5110973;27;9560;-75
2023/01/17 02:46:47;;;;;;;;;13.60;10.20;;;;;13.54;53.22;97268.47;5103972;27;8881;-77
2023/01/17 02:49:19;;;;;;;;;13.60;12.40;;;;;13.50;52.68;97263.47;5150403;27;8942;-75
2023/01/17 02:52:04;;;;;;;;;11.20;10.20;;;;;13.63;52.65;97256.69;5154664;27;8950;-77
2023/01/17 02:55:05;;;;;;;;;9.60;8.60;;;;;13.76;52.26;97278.72;5092604;27;8860;-73
2023/01/17 02:57:58;;;;;;;;;13.80;12.40;;;;;13.88;51.66;97285.13;5093970;27;8861;-77
2023/01/17 03:00:35;;;;;;;;;9.60;9.60;;;;;13.96;51.05;97289.97;5129257;27;9591;-77
2023/01/17 03:03:14;;;;;;;;;7.60;7.00;;;;;14.09;50.53;97293.66;5129177;27;8857;-76
2023/01/17 03:05:47;;;;;;;;;8.60;6.80;;;;;14.03;50.39;97289.59;5129004;27;8845;-77
2023/01/17 03:08:17;;;;;;;;;7.40;7.20;;;;;14.10;50.15;97282.28;5129013;27;8849;-76
2023/01/17 03:10:46;;;;;;;;;8.00;8.00;;;;;14.28;49.30;97277.00;5085374;28;8865;-76
2023/01/17 03:13:15;;;;;;;;;7.40;7.40;;;;;14.35;48.84;97294.09;5085475;28;8850;-73
2023/01/17 03:15:44;;;;;;;;;6.80;5.20;;;;;14.10;49.21;97286.63;5052455;28;8854;-77
2023/01/17 03:18:15;;;;;;;;;8.00;8.00;;;;;14.28;48.89;97290.94;5085727;28;8965;-77
2023/01/17 03:20:44;;;;;;;;;7.20;7.20;;;;;14.32;48.81;97289.84;5099287;28;8828;-76
2023/01/17 03:23:13;;;;;;;;;11.80;10.00;;;;;14.45;48.38;97290.06;5095538;28;8857;-75
2023/01/17 03:25:42;;;;;;;;;8.00;8.00;;;;;14.51;48.12;97289.72;5088326;28;8839;-75
2023/01/17 03:28:10;;;;;;;;;10.00;8.20;;;;;14.64;47.53;97281.25;5039172;28;8855;-76
2023/01/17 03:30:39;;;;;;;;;9.60;7.60;;;;;14.67;47.95;97286.31;5093058;28;8880;-75
2023/01/17 03:33:08;;;;;;;;;15.00;11.80;;;;;14.75;47.42;97297.28;5068347;28;8857;-76
2023/01/17 03:35:38;;;;;;;;;10.00;9.00;;;;;14.59;47.88;97307.72;5051474;28;8845;-77
2023/01/17 03:38:07;;;;;;;;;7.00;7.00;;;;;14.51;48.39;97315.13;5068478;28;9580;-78
2023/01/17 03:40:36;;;;;;;;;8.80;8.80;;;;;14.72;47.92;97319.25;5085151;28;8918;-76
2023/01/17 03:43:04;;;;;;;;;9.00;8.80;;;;;14.54;48.85;97335.94;5126713;27;8896;-74
2023/01/17 03:45:33;;;;;;;;;10.60;10.60;;;;;14.22;50.59;97346.31;5128650;27;8849;-77
2023/01/17 03:48:02;;;;;;;;;11.20;10.40;;;;;13.80;51.70;97355.41;5128639;27;8869;-77
2023/01/17 03:50:30;;;;;;;;;11.20;10.00;;;;;13.71;52.84;97366.31;5130347;27;8837;-75
2023/01/17 03:53:00;;;;;;;;;13.80;9.80;;;;;13.19;53.84;97374.81;5088432;27;9665;-75
2023/01/17 03:55:29;;;;;;;;;19.20;15.80;;;;;13.36;54.22;97368.84;5149395;27;8831;-76
2023/01/17 03:57:58;;;;;;;;;15.20;14.60;;;;;13.58;53.61;97387.84;5147714;27;8859;-74
2023/01/17 04:00:26;;;;;;;;;13.20;13.20;;;;;13.62;53.41;97401.66;5130534;27;8906;-76
2023/01/17 04:02:55;;;;;;;;;14.80;11.80;;;;;13.82;53.15;97406.78;5110027;27;8834;-78
2023/01/17 04:05:24;;;;;;;;;12.60;12.60;;;;;13.80;52.87;97420.88;5131788;27;8845;-74
2023/01/17 04:07:52;;;;;;;;;13.80;12.80;;;;;14.14;52.34;97421.84;5151116;27;8867;-73
2023/01/17 04:10:23;;;;;;;;;16.20;15.20;;;;;13.53;53.87;97417.78;5123768;27;9097;-74
2023/01/17 04:12:51;;;;;;;;;14.00;13.20;;;;;13.89;54.05;97438.75;5152762;27;8916;-74
2023/01/17 04:15:20;;;;;;;;;8.60;8.60;;;;;13.99;53.55;97441.81;5126424;27;8821;-74
2023/01/17 04:17:49;;;;;;;;;14.00;13.00;;;;;13.38;56.11;97450.75;5113482;27;8956;-76
2023/01/17 04:20:32;;;;;;;;;13.40;13.40;;;;;14.07;55.51;97446.69;5131986;27;8953;-76
2023/01/17 04:23:01;;;;;;;;;12.60;12.20;;;;;13.95;55.08;97445.47;5132110;27;8872;-74
2023/01/17 04:25:32;;;;;;;;;10.20;9.60;;;;;13.80;55.95;97436.59;5122101;27;8873;-72
2023/01/17 04:28:02;;;;;;;;;10.80;10.60;;;;;14.13;54.82;97439.34;5152839;27;8831;-76
2023/01/17 04:30:31;;;;;;;;;9.40;8.60;;;;;14.08;54.71;97430.00;5151639;27;8843;-75
2023/01/17 04:33:00;;;;;;;;;10.60;10.60;;;;;14.24;53.98;97429.19;5151759;27;8851;-75
2023/01/17 04:35:30;;;;;;;;;55.00;42.50;;;;;14.40;54.11;97431.03;5132468;27;8851;-73
2023/01/17 04:37:58;;;;;;;;;28.80;26.60;;;;;14.45;53.88;97428.22;5135661;27;8945;-76
2023/01/17 04:40:28;;;;;;;;;11.20;10.20;;;;;14.43;54.31;97446.63;5055215;27;8815;-74
2023/01/17 04:42:58;;;;;;;;;9.00;7.80;;;;;14.39;54.57;97431.97;5152772;27;8839;-75
2023/01/17 04:45:27;;;;;;;;;12.60;10.00;;;;;14.07;55.35;97451.91;5152532;27;8831;-76
2023/01/17 04:47:56;;;;;;;;;13.40;10.80;;;;;13.91;55.66;97457.03;5152838;27;9639;-75
2023/01/17 04:50:24;;;;;;;;;17.40;15.20;;;;;14.00;55.78;97452.19;5152317;27;8843;-76
2023/01/17 04:52:53;;;;;;;;;16.00;14.60;;;;;13.75;57.02;97462.16;5133847;27;8875;-76
2023/01/17 04:55:22;;;;;;;;;14.20;12.80;;;;;13.54;57.32;97462.25;5133562;27;8956;-73
2023/01/17 04:57:51;;;;;;;;;16.80;16.60;;;;;13.67;56.45;97473.00;5134695;27;8910;-79
2023/01/17 05:00:21;;;;;;;;;13.40;12.80;;;;;13.60;57.00;97464.56;5131014;27;8849;-75
2023/01/17 05:02:51;;;;;;;;;18.40;13.80;;;;;13.18;58.18;97462.94;5131023;27;8837;-77
2023/01/17 05:05:20;;;;;;;;;16.80;14.40;;;;;12.91;59.55;97466.78;5095804;27;8988;-77
2023/01/17 05:07:56;;;;;;;;;19.40;14.80;;;;;12.99;59.14;97478.63;5112778;27;8869;-76
2023/01/17 05:10:25;;;;;;;;;13.40;12.00;;;;;13.26;58.07;97473.06;5112979;27;8926;-74
2023/01/17 05:12:54;;;;;;;;;15.60;13.40;;;;;13.08;57.79;97477.38;5145747;27;8886;-75
2023/01/17 05:15:26;;;;;;;;;9.80;9.80;;;;;12.84;59.13;97480.13;5132084;27;9604;-74
2023/01/17 05:17:55;;;;;;;;;10.60;10.00;;;;;12.93;58.34;97483.25;5151815;27;8936;-78
2023/01/17 05:20:26;;;;;;;;;6.80;6.20;;;;;12.95;58.32;97492.75;5131128;27;8916;-77
2023/01/17 05:22:56;;;;;;;;;8.80;8.80;;;;;13.09;57.36;97486.06;5130884;27;8882;-76
2023/01/17 05:25:27;;;;;;;;;7.80;7.20;;;;;13.16;57.82;97501.44;5095380;27;9595;-73
2023/01/17 05:27:55;;;;;;;;;7.40;6.80;;;;;13.42;57.45;97496.81;5094931;27;8852;-77
2023/01/17 05:30:27;;;;;;;;;9.00;8.40;;;;;13.29;57.66;97487.78;5130408;27;8837;-76
2023/01/17 05:32:57;;;;;;;;;6.20;6.20;;;;;13.26;58.21;97491.41;5130524;27;8937;-78
2023/01/17 05:35:28;;;;;;;;;6.60;6.40;;;;;13.09;57.89;97481.69;5115432;27;8829;-78
2023/01/17 05:37:57;;;;;;;;;12.40;11.40;;;;;12.81;58.31;97468.94;5130474;27;8853;-78
2023/01/17 05:40:29;;;;;;;;;13.60;13.00;;;;;12.86;57.79;97477.47;5076993;27;8960;-79
2023/01/17 05:43:00;;;;;;;;;3.60;3.60;;;;;12.66;57.86;97488.75;5113971;27;8964;-73
2023/01/17 05:45:32;;;;;;;;;4.80;4.80;;;;;12.50;58.77;97488.56;5126677;27;8845;-75
2023/01/17 05:48:01;;;;;;;;;6.20;6.20;;;;;12.46;58.26;97489.59;5138839;27;8840;-75
2023/01/17 05:50:32;;;;;;;;;8.20;7.00;;;;;12.71;57.23;97505.09;5064455;27;8931;-77
2023/01/17 05:53:04;;;;;;;;;7.60;7.00;;;;;13.05;56.96;97522.81;5150686;27;9001;-75
2023/01/17 05:55:33;;;;;;;;;8.00;8.00;;;;;13.21;56.41;97519.53;5114812;27;8847;-78
2023/01/17 05:58:03;;;;;;;;;9.40;9.00;;;;;13.39;56.26;97518.75;5114246;27;8851;-73
2023/01/17 06:00:33;;;;;;;;;8.00;8.00;;;;;13.38;55.77;97526.69;5132021;27;8851;-74
2023/01/17 06:03:02;;;;;;;;;10.00;8.40;;;;;13.51;55.68;97529.59;5127450;27;8899;-77
2023/01/17 06:05:31;;;;;;;;;10.80;10.20;;;;;13.27;56.21;97525.38;5129515;27;8833;-76
2023/01/17 06:08:00;;;;;;;;;9.40;9.40;;;;;13.10;55.94;97513.91;5142727;27;9028;-75
2023/01/17 06:10:29;;;;;;;;;8.00;7.40;;;;;13.16;56.17;97509.28;5128354;27;8985;-72
2023/01/17 06:13:02;;;;;;;;;8.00;6.40;;;;;12.96;56.24;97523.22;5076314;27;8846;-76
2023/01/17 06:15:34;;;;;;;;;5.20;5.20;;;;;12.83;56.70;97514.19;5128935;27;8846;-76
2023/01/17 06:18:06;;;;;;;;;7.00;7.00;;;;;12.94;56.25;97511.13;5148811;27;8839;-76
2023/01/17 06:20:36;;;;;;;;;4.00;3.00;;;;;12.58;57.93;97507.38;5146889;27;8862;-74
2023/01/17 06:23:06;;;;;;;;;1.00;1.00;;;;;12.98;55.93;97491.75;5090231;27;9583;-76
2023/01/17 06:25:37;;;;;;;;;7.00;6.80;;;;;13.16;56.02;97490.97;5131803;27;8831;-76
2023/01/17 06:28:07;;;;;;;;;4.40;4.40;;;;;13.09;55.63;97489.53;5119041;27;8873;-77
2023/01/17 06:30:37;;;;;;;;;8.80;8.00;;;;;13.23;55.63;97492.41;5111438;27;8833;-77
2023/01/17 06:33:06;;;;;;;;;11.60;11.60;;;;;13.10;55.60;97503.44;5110113;27;8845;-77
2023/01/17 06:35:36;;;;;;;;;9.20;6.80;;;;;12.98;55.27;97510.06;5123932;27;8902;-77
2023/01/17 06:38:05;;;;;;;;;8.80;7.80;;;;;12.96;55.61;97507.53;5110904;27;9622;-79
2023/01/17 06:40:33;;;;;;;;;30.50;29.25;;;;;12.80;56.26;97530.88;5104461;27;8839;-80
2023/01/17 06:43:03;;;;;;;;;8.40;8.00;;;;;12.62;57.03;97532.47;5149525;27;8848;-77
2023/01/17 06:45:34;;;;;;;;;4.00;2.20;;;;;12.53;56.83;97532.84;5133016;27;8915;-79
2023/01/17 06:48:05;;;;;;;;;8.40;8.40;;;;;12.49;56.90;97536.50;5128438;27;8869;-77
2023/01/17 06:50:34;;;;;;;;;8.80;8.80;;;;;12.53;56.98;97532.84;5067731;27;8972;-79
2023/01/17 06:53:05;;;;;;;;;7.00;7.00;;;;;12.84;56.38;97540.28;5130416;27;8866;-76
2023/01/17 06:55:34;;;;;;;;;9.40;8.80;;;;;12.81;56.37;97547.41;5136934;27;8855;-77
2023/01/17 06:58:03;;;;;;;;;11.40;8.00;;;;;12.72;57.17;97550.41;5118442;27;8986;-75
2023/01/17 07:00:33;;;;;;;;;13.80;12.60;;;;;12.63;57.44;97555.13;5136924;27;8839;-75
2023/01/17 07:03:04;;;;;;;;;11.20;9.00;;;;;12.68;57.61;97565.38;5128306;27;8868;-72
2023/01/17 07:05:35;;;;;;;;;10.20;8.80;;;;;12.97;56.67;97577.25;5145538;27;8847;-75
2023/01/17 07:08:04;;;;;;;;;7.00;6.80;;;;;12.81;56.96;97591.88;5113671;27;8929;-79
2023/01/17 07:10:32;;;;;;;;;7.40;7.40;;;;;13.27;55.16;97580.34;5104793;27;8872;-78
2023/01/17 07:13:01;;;;;;;;;9.00;9.00;;;;;13.47;54.59;97581.25;5111591;27;8959;-74
2023/01/17 07:15:30;;;;;;;;;11.20;9.00;;;;;13.37;54.81;97588.66;5143482;27;8820;-75
2023/01/17 07:18:01;;;;;;;;;9.80;7.00;;;;;13.39;54.58;97593.84;5114139;27;8855;-75
2023/01/17 07:20:32;;;;;;;;;12.40;12.00;;;;;13.52;54.14;97589.78;5137984;27;8845;-77
2023/01/17 07:23:01;;;;;;;;;13.00;9.60;;;;;13.59;53.98;97592.94;5108569;27;8842;-76
2023/01/17 07:25:30;;;;;;;;;9.80;8.80;;;;;13.78;53.60;97596.47;5120080;27;8980;-77
2023/01/17 07:27:58;;;;;;;;;10.20;9.40;;;;;13.86;53.29;97600.53;5089709;27;8837;-76
2023/01/17 07:30:27;;;;;;;;;15.20;14.40;;;;;13.84;53.24;97596.19;5110506;27;8857;-75
2023/01/17 07:32:56;;;;;;;;;10.00;10.00;;;;;14.11;52.56;97615.97;5124224;27;8847;-75
2023/01/17 07:35:26;;;;;;;;;16.20;15.20;;;;;14.17;52.62;97615.69;5110476;27;8842;-76
2023/01/17 07:37:56;;;;;;;;;13.60;13.60;;;;;14.08;52.54;97634.44;5111090;27;9684;-75
2023/01/17 07:40:26;;;;;;;;;8.40;8.20;;;;;12.40;58.06;97657.13;5133138;27;8841;-76
2023/01/17 07:43:01;;;;;;;;;8.40;7.80;;;;;11.32;63.95;97674.91;5110995;27;8859;-76
2023/01/17 07:45:32;;;;;;;;;9.80;9.80;;;;;11.76;63.18;97681.22;5137876;27;8828;-74
2023/01/17 07:48:00;;;;;;;;;11.60;11.20;;;;;12.26;61.33;97689.84;5131442;27;9655;-75
2023/01/17 07:50:29;;;;;;;;;9.40;8.20;;;;;12.18;59.92;97685.84;5134091;27;8969;-75
2023/01/17 07:52:59;;;;;;;;;12.20;9.00;;;;;12.53;60.62;97675.81;5140818;27;8841;-76
2023/01/17 07:55:28;;;;;;;;;7.20;7.20;;;;;12.86;59.83;97678.88;5150816;27;8836;-75
2023/01/17 07:57:57;;;;;;;;;6.80;6.80;;;;;13.16;58.49;97683.78;5134499;27;8931;-75
2023/01/17 08:00:26;;;;;;;;;11.40;10.60;;;;;13.33;57.90;97689.19;5138134;27;9261;-74
2023/01/17 08:02:59;;;;;;;;;12.60;12.00;;;;;13.49;58.06;97693.78;5130999;27;8892;-76
2023/01/17 08:05:29;;;;;;;;;10.80;10.80;;;;;13.22;59.46;97696.59;5147165;27;8959;-74
2023/01/17 08:07:59;;;;;;;;;12.00;11.00;;;;;13.47;59.27;97704.31;5132802;27;9633;-77
2023/01/17 08:10:28;;;;;;;;;13.20;11.40;;;;;13.59;58.95;97698.59;5145406;27;8843;-76
2023/01/17 08:12:56;;;;;;;;;12.00;11.80;;;;;13.51;58.84;97698.03;5138432;27;8831;-77
2023/01/17 08:15:25;;;;;;;;;15.60;14.60;;;;;13.21;59.16;97698.38;5141053;27;8841;-76
2023/01/17 08:17:56;;;;;;;;;17.20;17.20;;;;;12.57;61.64;97686.09;5146028;27;9621;-75
2023/01/17 08:20:26;;;;;;;;;13.40;12.40;;;;;13.18;61.33;97677.56;5097135;27;8822;-74
2023/01/17 08:22:56;;;;;;;;;15.80;14.20;;;;;13.48;60.86;97678.97;5114019;27;8857;-74
2023/01/17 08:25:27;;;;;;;;;16.40;16.40;;;;;13.70;60.33;97692.88;5113423;27;8953;-75
2023/01/17 08:27:57;;;;;;;;;18.00;14.60;;;;;13.69;58.92;97691.19;5115807;27;8842;-76
2023/01/17 08:30:26;;;;;;;;;19.80;18.80;;;;;13.82;58.81;97700.22;5130203;27;8833;-76
2023/01/17 08:32:56;;;;;;;;;27.80;25.20;;;;;14.03;58.67;97693.16;5080224;27;8845;-75
2023/01/17 08:35:26;;;;;;;;;41.00;37.50;;;;;14.24;58.19;97688.72;5098724;27;8912;-75
2023/01/17 08:37:56;;;;;;;;;31.25;28.25;;;;;14.26;56.85;97669.47;5136161;27;9625;-76
2023/01/17 08:40:26;;;;;;;;;21.80;19.80;;;;;14.28;56.74;97644.03;5143285;27;8845;-75
2023/01/17 08:42:56;;;;;;;;;10.20;8.20;;;;;14.29;55.61;97636.09;5146381;27;8846;-77
2023/01/17 08:45:25;;;;;;;;;8.60;7.80;;;;;14.21;55.68;97627.72;5082533;27;8882;-74
2023/01/17 08:47:53;;;;;;;;;8.40;7.40;;;;;14.23;55.83;97616.25;5120023;27;8869;-76
2023/01/17 08:50:23;;;;;;;;;10.00;10.00;;;;;14.32;55.66;97601.84;5145946;27;8822;-76
2023/01/17 08:52:58;;;;;;;;;13.60;13.40;;;;;14.36;55.34;97605.19;5125560;27;8847;-74
2023/01/17 08:55:30;;;;;;;;;13.00;12.00;;;;;14.31;55.65;97615.91;5133557;27;8860;-77
2023/01/17 08:57:59;;;;;;;;;3.40;3.40;;;;;14.20;55.36;97602.44;5139755;27;8853;-77
2023/01/17 09:00:28;;;;;;;;;9.20;8.00;;;;;14.30;55.08;97600.22;5110697;27;8868;-75
2023/01/17 09:02:58;;;;;;;;;9.20;7.60;;;;;14.19;55.03;97600.72;5035055;27;8843;-75
2023/01/17 09:05:27;;;;;;;;;6.20;6.20;;;;;14.26;54.55;97596.06;5102298;27;8842;-74
2023/01/17 09:07:56;;;;;;;;;5.40;5.40;;;;;14.28;54.76;97588.97;5053923;28;8865;-76
2023/01/17 09:10:25;;;;;;;;;6.80;6.40;;;;;14.21;54.67;97596.25;5070387;28;8860;-76
2023/01/17 09:12:55;;;;;;;;;7.00;7.00;;;;;14.29;54.65;97606.38;5036814;28;8873;-76
2023/01/17 09:15:24;;;;;;;;;7.20;7.00;;;;;14.32;55.01;97614.97;5087821;28;9651;-75
2023/01/17 09:17:55;;;;;;;;;6.40;5.80;;;;;14.24;54.86;97617.94;5070191;28;8993;-76
2023/01/17 09:20:28;;;;;;;;;7.40;7.40;;;;;14.29;54.73;97617.75;5070734;28;8856;-76
2023/01/17 09:22:57;;;;;;;;;8.00;6.40;;;;;14.33;55.02;97615.81;5070410;28;8924;-77
2023/01/17 09:25:27;;;;;;;;;9.00;8.80;;;;;14.41;55.13;97617.16;5070178;28;8861;-78
2023/01/17 09:27:57;;;;;;;;;9.00;9.00;;;;;14.24;55.74;97622.34;5050364;28;8902;-76
2023/01/17 09:30:26;;;;;;;;;12.40;12.40;;;;;14.48;55.26;97620.34;5070028;28;8980;-76
2023/01/17 09:32:55;;;;;;;;;14.40;13.00;;;;;14.66;54.97;97623.03;5069972;28;9595;-79
2023/01/17 09:35:24;;;;;;;;;10.20;9.00;;;;;14.75;54.44;97622.59;5026990;28;8906;-80
2023/01/17 09:37:52;;;;;;;;;9.20;9.20;;;;;14.76;54.18;97621.66;5010237;28;8892;-76
2023/01/17 09:40:25;;;;;;;;;8.00;8.00;;;;;14.92;53.68;97611.28;5066439;28;8844;-76
2023/01/17 09:43:01;;;;;;;;;10.60;9.00;;;;;15.01;52.91;97602.97;5037025;28;8877;-76
2023/01/17 09:45:32;;;;;;;;;12.80;11.80;;;;;15.10;53.21;97596.38;5087101;28;8895;-80
2023/01/17 09:48:05;;;;;;;;;11.40;11.40;;;;;15.21;53.43;97591.44;5049597;28;8863;-78
2023/01/17 09:50:42;;;;;;;;;12.60;12.60;;;;;15.44;52.84;97586.78;5057063;28;8966;-77
2023/01/17 09:53:15;;;;;;;;;12.20;12.20;;;;;15.57;52.83;97585.22;5087756;28;8885;-77
2023/01/17 09:55:52;;;;;;;;;8.60;8.00;;;;;15.71;52.21;97579.25;5070364;28;8929;-77
2023/01/17 09:58:32;;;;;;;;;10.00;9.00;;;;;15.60;52.38;97570.13;5086223;28;8872;-79
2023/01/17 10:01:13;;;;;;;;;7.40;6.80;;;;;15.42;52.90;97563.22;5064040;28;8875;-73
2023/01/17 10:03:50;;;;;;;;;12.00;11.00;;;;;15.23;53.62;97568.56;5058396;28;8879;-77
2023/01/17 10:06:30;;;;;;;;;11.40;10.60;;;;;15.37;53.81;97584.47;5071756;27;8879;-77
2023/01/17 10:09:22;;;;;;;;;8.00;8.00;;;;;15.39;53.91;97585.25;5127153;27;8960;-78
2023/01/17 10:12:14;;;;;;;;;11.20;11.20;;;;;15.70;53.68;97585.41;5079327;27;8841;-76
2023/01/17 10:15:02;;;;;;;;;12.40;10.40;;;;;15.87;53.15;97581.94;5110196;27;8853;-79
2023/01/17 10:17:43;;;;;;;;;12.00;10.80;;;;;16.01;52.44;97575.91;5059942;27;8833;-77
2023/01/17 10:20:24;;;;;;;;;9.40;9.40;;;;;16.16;52.12;97565.44;5127362;27;8930;-79
2023/01/17 10:23:10;;;;;;;;;12.20;11.00;;;;;16.24;52.05;97546.59;5066188;28;8944;-78
2023/01/17 10:25:47;;;;;;;;;9.00;7.60;;;;;16.45;51.40;97541.91;5050039;28;8863;-77
2023/01/17 10:28:18;;;;;;;;;12.40;10.20;;;;;16.48;51.13;97525.94;5065787;28;8904;-76
2023/01/17 10:30:51;;;;;;;;;10.00;9.00;;;;;16.52;50.72;97518.69;5065980;28;8864;-77
2023/01/17 10:33:21;;;;;;;;;11.20;10.00;;;;;16.47;50.82;97532.13;5049692;28;8940;-79
2023/01/17 10:35:58;;;;;;;;;8.20;8.20;;;;;16.64;50.85;97525.91;5016442;28;8840;-77
2023/01/17 10:38:35;;;;;;;;;12.60;11.60;;;;;16.69;50.46;97513.34;5066353;28;8982;-77
2023/01/17 10:41:08;;;;;;;;;13.20;10.60;;;;;16.67;50.00;97506.44;5067396;28;8948;-76
2023/01/17 10:43:46;;;;;;;;;10.60;9.60;;;;;16.64;49.83;97499.59;5050475;28;8875;-74
2023/01/17 10:46:21;;;;;;;;;11.00;11.00;;;;;16.87;49.97;97497.44;5066597;28;8860;-77
2023/01/17 10:48:52;;;;;;;;;13.40;12.20;;;;;16.91;50.03;97498.94;5049210;28;8906;-77
2023/01/17 10:51:43;;;;;;;;;16.20;12.80;;;;;17.20;49.77;97501.59;5065618;28;8882;-75
2023/01/17 10:54:25;;;;;;;;;12.60;12.00;;;;;17.27;49.29;97509.03;5082377;27;9587;-78
2023/01/17 10:56:54;;;;;;;;;18.40;17.20;;;;;17.26;49.15;97496.00;5037713;28;8857;-76
2023/01/17 10:59:29;;;;;;;;;11.20;11.20;;;;;17.47;48.42;97494.66;5085805;28;8853;-79
2023/01/17 11:02:05;;;;;;;;;17.40;16.20;;;;;17.44;48.53;97488.72;5085684;28;8872;-76
2023/01/17 11:04:37;;;;;;;;;12.60;12.60;;;;;17.52;48.13;97489.97;5085978;28;8854;-77
2023/01/17 11:07:14;;;;;;;;;20.20;16.20;;;;;17.61;48.57;97470.06;5085470;28;8892;-78
2023/01/17 11:09:44;;;;;;;;;17.40;15.40;;;;;17.42;48.31;97470.38;5068764;28;8845;-77
2023/01/17 11:12:19;;;;;;;;;15.20;14.60;;;;;17.43;48.26;97466.81;5080754;27;8876;-77
2023/01/17 11:15:02;;;;;;;;;16.80;16.40;;;;;17.22;48.47;97450.53;5126245;27;8849;-78
2023/01/17 11:17:35;;;;;;;;;21.40;17.60;;;;;17.40;48.21;97453.81;5125734;27;8857;-80
2023/01/17 11:20:14;;;;;;;;;14.40;14.00;;;;;17.46;48.01;97437.63;5109153;27;8880;-79
2023/01/17 11:22:48;;;;;;;;;16.80;16.00;;;;;17.30;49.17;97445.66;5058536;27;8925;-81
2023/01/17 11:25:22;;;;;;;;;21.40;21.40;;;;;17.32;49.15;97433.22;5108956;27;8825;-77
2023/01/17 11:28:02;;;;;;;;;16.40;15.20;;;;;17.51;49.15;97425.00;5117370;27;8875;-79
2023/01/17 11:30:31;;;;;;;;;22.40;21.20;;;;;17.30;49.90;97423.72;5131028;27;8835;-75
2023/01/17 11:33:04;;;;;;;;;21.40;20.40;;;;;17.51;49.43;97414.47;5096082;27;8959;-74
2023/01/17 11:35:36;;;;;;;;;23.80;22.60;;;;;17.54;49.23;97411.66;5131874;27;8847;-75
2023/01/17 11:38:11;;;;;;;;;20.20;19.40;;;;;17.47;49.29;97409.50;5149118;27;8851;-76
2023/01/17 11:40:42;;;;;;;;;27.40;26.80;;;;;17.61;48.87;97400.72;5150923;27;8870;-76
2023/01/17 11:43:21;;;;;;;;;24.20;23.40;;;;;17.57;48.94;97400.06;5100484;27;9591;-76
2023/01/17 11:46:14;;;;;;;;;22.20;22.00;;;;;17.28;49.52;97404.53;5084969;28;8861;-77
2023/01/17 11:48:48;;;;;;;;;25.40;25.00;;;;;17.17;50.10;97396.47;5068501;28;8866;-76
2023/01/17 11:51:21;;;;;;;;;28.80;25.00;;;;;17.08;50.10;97400.50;5068365;28;8955;-81
2023/01/17 11:53:50;;;;;;;;;28.80;26.80;;;;;17.24;49.78;97388.06;5068301;28;8841;-78
2023/01/17 11:56:29;;;;;;;;;22.40;22.40;;;;;17.17;50.31;97380.66;5085324;28;8975;-80
2023/01/17 11:59:26;;;;;;;;;29.40;25.80;;;;;17.10;50.41;97370.47;5086198;28;8834;-78
2023/01/17 12:02:16;;;;;;;;;27.60;25.80;;;;;17.25;50.10;97367.84;5005067;28;8886;-79
2023/01/17 12:04:53;;;;;;;;;29.40;27.00;;;;;17.15;50.71;97352.63;4989713;28;8874;-78
2023/01/17 12:07:34;;;;;;;;;30.20;27.40;;;;;17.27;50.06;97329.91;4989881;28;9669;-78
2023/01/17 12:10:15;;;;;;;;;24.00;20.20;;;;;17.05;50.86;97319.91;5010366;28;8902;-79
2023/01/17 12:15:58;;;;;;;;;35.40;31.60;;;;;17.20;50.97;97327.78;4992318;28;8840;-79
2023/01/17 12:18:36;;;;;;;;;27.40;26.40;;;;;17.12;51.39;97313.28;5064629;28;8906;-77
2023/01/17 12:21:15;;;;;;;;;27.00;26.80;;;;;17.09;51.24;97316.13;5064496;28;8851;-78
2023/01/17 12:23:58;;;;;;;;;31.60;29.00;;;;;16.93;51.82;97316.22;5030767;28;8863;-75
2023/01/17 12:26:36;;;;;;;;;29.60;24.80;;;;;16.83;51.80;97301.13;5067303;28;8872;-79
2023/01/17 12:29:46;;;;;;;;;29.20;25.60;;;;;16.59;52.38;97304.28;5069681;28;8998;-76
2023/01/17 12:32:38;;;;;;;;;29.00;26.60;;;;;16.65;51.85;97296.00;5069496;28;8917;-76
2023/01/17 12:35:15;;;;;;;;;26.80;25.20;;;;;16.36;52.87;97293.38;5070221;28;8870;-77
2023/01/17 12:37:50;;;;;;;;;29.00;28.60;;;;;16.25;53.21;97290.53;5080176;27;8856;-77
2023/01/17 12:40:37;;;;;;;;;25.00;23.00;;;;;16.23;53.41;97284.53;5145956;27;8889;-77
2023/01/17 12:43:15;;;;;;;;;25.60;25.00;;;;;16.29;53.38;97268.38;5147276;27;8846;-74
2023/01/17 12:45:45;;;;;;;;;25.20;23.00;;;;;16.32;53.38;97283.97;5146689;27;8866;-76
2023/01/17 12:48:17;;;;;;;;;26.60;26.20;;;;;16.53;52.98;97275.72;5133198;27;8851;-73
2023/01/17 12:50:52;;;;;;;;;34.00;30.00;;;;;16.57;53.14;97266.69;5139101;27;8825;-75
2023/01/17 12:53:31;;;;;;;;;38.25;34.25;;;;;16.50;53.73;97255.72;5138620;27;8902;-76
2023/01/17 12:56:08;;;;;;;;;52.50;40.75;;;;;16.34;54.93;97250.53;5137405;27;8850;-79
2023/01/17 12:58:41;;;;;;;;;45.50;40.25;;;;;16.24;54.98;97252.03;5134049;27;8848;-77
2023/01/17 13:01:19;;;;;;;;;55.00;43.75;;;;;16.29;54.80;97244.69;5152436;27;8850;-75
2023/01/17 13:03:59;;;;;;;;;51.25;39.75;;;;;16.35;55.00;97232.97;5133678;27;8942;-77
2023/01/17 13:06:42;;;;;;;;;49.50;42.00;;;;;16.30;55.47;97232.41;5098971;27;8839;-76
2023/01/17 13:09:16;;;;;;;;;52.25;41.25;;;;;16.29;55.78;97222.81;5133834;27;8836;-77
2023/01/17 13:11:50;;;;;;;;;48.75;41.25;;;;;16.37;55.30;97228.47;5133382;27;8835;-78
2023/01/17 13:14:18;;;;;;;;;46.25;37.00;;;;;16.29;55.72;97221.03;5138911;27;8857;-77
2023/01/17 13:16:56;;;;;;;;;45.25;35.75;;;;;16.27;55.74;97208.91;5112528;27;8853;-76
2023/01/17 13:19:34;;;;;;;;;35.50;31.75;;;;;16.30;55.54;97206.13;5129861;27;8930;-76